KFNL

Fort Collins-Loveland Municipal Airport

Fort Collins/Loveland, Colorado, USA
METAR KFNL 101456Z AUTO 02003KT 10SM CLR M09/M13 A3020 RMK AO2 SLP265 6//// T10941128 58005 FZRANO PNO $
Observed Flight Rules
Dec-10 @ 14:56 UTC (an hour ago) Visual Flight Rules
Wind Visibility Clouds
20° at 3 knots 10 miles
  • Clear skies
Temperatures Readings
Current -9°C / 16°F
Dewpoint -13°C / 9°F
Humidity 73%
Altimeter 30.2" Hg
Pressure 1026.5 hPa
Elevation 1529
METAR KFNL 101456Z AUTO 02003KT 10SM CLR M09/M13 A3020 RMK AO2 SLP265 6//// T10941128 58005 FZRANO PNO $
Observed Flight Rules
Dec-10 @ 14:56 UTC
(an hour ago)
VFR
Wind Visibility
20° at 3 knots 10 miles
Clouds
  • Clear skies
Temperature Dewpoint
-9°C / 16°F -13°C / 9°F
Humidity Altimeter Pressure
73% 30.2" Hg 1026.5 hPa